Owosso, Michigan
Current Conditions -  °F | °C
As of 3:14 PM on Thursday 23 Oct 2014 (Local Time) from KRNP Reporting Station
Clear Clear  
Wind Chill: 55°   Ceiling: Unl
Heat Index: 55°   Visibility: 10mi
Dew Point: 37°   Wind: 3mph
Humidity: 52%   Direction: 230°SW
Pressure: 30.15"   Gusts: NA
Location:  43°N, 84.18°W
Report Text: KRNP 231914Z AUTO 23003KT 10SM CLR 13/03 A3015 RMK AO2 T01260030
Loading
Personal Weather Stations






























Interactive Weather Map
Tropical Storm Tracking
New forecast layout! Learn more

10-Day Weather Forecast

Advertisements
Track Severe Weather on mobile